createdAt,value
2019-02-24T00:02:10.095Z,14.63
2019-02-24T00:04:42.737Z,13.63
2019-02-24T00:07:15.423Z,16.07
2019-02-24T00:09:48.084Z,13.10
2019-02-24T00:12:20.770Z,13.63
2019-02-24T00:14:53.449Z,13.10
2019-02-24T00:17:26.131Z,14.67
2019-02-24T00:19:58.846Z,14.67
2019-02-24T00:22:31.508Z,12.73
2019-02-24T00:25:04.195Z,13.60
2019-02-24T00:27:36.877Z,15.77
2019-02-24T00:30:09.542Z,16.97
2019-02-24T00:32:42.202Z,13.97
2019-02-24T00:35:14.874Z,14.63
2019-02-24T00:37:47.566Z,15.17
2019-02-24T00:40:20.234Z,16.13
2019-02-24T00:42:52.914Z,15.10
2019-02-24T00:45:25.577Z,12.57
2019-02-24T00:47:59.192Z,13.67
2019-02-24T00:50:31.862Z,15.47
2019-02-24T00:53:04.555Z,14.83
2019-02-24T00:55:37.206Z,14.13
2019-02-24T00:58:15.997Z,13.73
2019-02-24T01:00:44.359Z,15.13
2019-02-24T01:03:17.039Z,15.40
2019-02-24T01:05:49.691Z,14.90
2019-02-24T01:08:22.390Z,13.57
2019-02-24T01:10:55.130Z,12.77
2019-02-24T01:13:27.867Z,13.97
2019-02-24T01:16:00.534Z,13.37
2019-02-24T01:18:33.190Z,12.37
2019-02-24T01:21:05.849Z,14.27
2019-02-24T01:23:38.510Z,16.57
2019-02-24T01:26:11.161Z,14.83
2019-02-24T01:28:43.841Z,14.33
2019-02-24T01:31:16.493Z,12.93
2019-02-24T01:33:49.189Z,15.37
2019-02-24T01:36:21.838Z,13.27
2019-02-24T01:38:54.567Z,15.00
2019-02-24T01:41:27.238Z,13.80
2019-02-24T01:43:59.946Z,13.90
2019-02-24T01:46:32.607Z,14.10
2019-02-24T01:49:05.264Z,13.77
2019-02-24T01:51:37.923Z,14.60
2019-02-24T01:54:10.711Z,14.07
2019-02-24T01:56:43.371Z,14.97
2019-02-24T01:59:16.075Z,14.73
2019-02-24T02:02:08.070Z,17.93
2019-02-24T02:04:40.873Z,13.87
2019-02-24T02:07:15.707Z,13.37
2019-02-24T02:09:48.413Z,16.47
2019-02-24T02:12:21.072Z,14.23
2019-02-24T02:14:53.838Z,15.97
2019-02-24T02:17:26.532Z,14.07
2019-02-24T02:20:00.305Z,16.03
2019-02-24T02:22:32.982Z,14.57
2019-02-24T02:25:05.660Z,15.67
2019-02-24T03:18:07.455Z,14.73
2019-02-24T03:20:40.178Z,14.93
2019-02-24T03:23:12.854Z,12.60
2019-02-24T03:25:45.512Z,13.97
2019-02-24T03:28:18.163Z,14.77
2019-02-24T03:30:50.821Z,14.57
2019-02-24T03:33:23.499Z,14.83
2019-02-24T03:35:56.166Z,13.30
2019-02-24T03:38:28.855Z,13.60
2019-02-24T03:41:01.494Z,13.77
2019-02-24T03:43:34.177Z,14.37
2019-02-24T03:46:06.887Z,14.53
2019-02-24T03:48:39.530Z,15.57
2019-02-24T03:51:12.151Z,12.87
2019-02-24T03:53:44.832Z,13.43
2019-02-24T03:56:17.510Z,12.03
2019-02-24T03:58:50.191Z,15.00
2019-02-24T04:01:22.833Z,12.87
2019-02-24T04:03:55.531Z,14.17
2019-02-24T04:06:28.204Z,13.60
2019-02-24T04:09:00.867Z,12.40
2019-02-24T04:11:33.515Z,16.97
2019-02-24T04:14:06.155Z,13.87
2019-02-24T04:16:38.790Z,12.03
2019-02-24T04:19:11.432Z,12.80
2019-02-24T04:21:44.050Z,14.07
2019-02-24T04:24:16.704Z,13.13
2019-02-24T04:26:49.345Z,13.43
2019-02-24T04:29:24.666Z,14.37
2019-02-24T04:31:56.510Z,10.60
2019-02-24T04:34:29.215Z,11.50
2019-02-24T04:37:01.880Z,12.10
2019-02-24T04:39:34.543Z,12.33
2019-02-24T04:42:07.195Z,14.17
2019-02-24T04:44:39.943Z,12.70
2019-02-24T04:47:12.597Z,12.77
2019-02-24T04:49:45.255Z,12.30
2019-02-24T04:52:17.927Z,13.97
2019-02-24T04:54:50.879Z,12.67
2019-02-24T04:57:23.537Z,13.87
2019-02-24T04:59:56.195Z,11.87
2019-02-24T05:02:28.851Z,15.13
2019-02-24T05:05:01.785Z,14.13
2019-02-24T05:07:34.445Z,14.93
2019-02-24T05:10:07.107Z,15.83
2019-02-24T05:12:39.743Z,13.93
2019-02-24T05:15:12.424Z,12.53
2019-02-24T05:17:45.080Z,13.83
2019-02-24T05:20:17.770Z,13.17
2019-02-24T05:22:50.455Z,12.47
2019-02-24T05:25:23.134Z,13.67
2019-02-24T05:27:55.793Z,12.03
2019-02-24T06:06:18.204Z,9.93
2019-02-24T06:08:50.875Z,11.30
2019-02-24T06:11:23.551Z,11.90
2019-02-24T06:13:56.289Z,11.17
2019-02-24T06:16:28.939Z,10.77
2019-02-24T06:19:01.688Z,11.87
2019-02-24T06:21:34.507Z,17.23
2019-02-24T06:24:07.154Z,13.37
2019-02-24T06:26:39.828Z,10.03
2019-02-24T06:29:12.460Z,13.03
2019-02-24T06:31:45.104Z,10.93
2019-02-24T06:34:17.760Z,12.17
2019-02-24T06:36:50.391Z,10.67
2019-02-24T06:39:23.050Z,10.00
2019-02-24T06:41:55.714Z,12.13
2019-02-24T06:44:28.346Z,12.33
2019-02-24T06:47:00.974Z,9.97
2019-02-24T06:49:33.662Z,11.47
2019-02-24T06:52:06.351Z,10.67
2019-02-24T06:54:38.972Z,9.90
2019-02-24T06:57:11.641Z,10.77
2019-02-24T06:59:44.292Z,12.10
2019-02-24T07:02:16.927Z,12.37
2019-02-24T07:04:49.556Z,10.03
2019-02-24T07:07:22.215Z,13.73
2019-02-24T07:09:54.880Z,11.73
2019-02-24T07:12:27.522Z,10.17
2019-02-24T07:15:00.146Z,11.17
2019-02-24T07:17:32.791Z,11.10
2019-02-24T07:20:05.585Z,10.00
2019-02-24T07:22:38.217Z,11.40
2019-02-24T07:25:10.855Z,12.57
2019-02-24T07:27:43.502Z,13.07
2019-02-24T07:30:23.053Z,11.50
2019-02-24T07:32:50.528Z,14.27
2019-02-24T07:35:23.174Z,11.53
2019-02-24T07:37:55.815Z,10.63
2019-02-24T07:40:28.445Z,11.13
2019-02-24T07:43:01.102Z,8.93
2019-02-24T07:45:33.743Z,9.67
2019-02-24T07:48:06.384Z,9.33
2019-02-24T07:50:39.003Z,9.93
2019-02-24T07:53:11.674Z,9.83
2019-02-24T07:55:44.312Z,10.20
2019-02-24T07:58:16.951Z,11.17
2019-02-24T08:00:49.595Z,10.27
2019-02-24T08:03:22.215Z,8.93
2019-02-24T08:05:54.834Z,8.47
2019-02-24T08:08:27.550Z,8.87
2019-02-24T08:11:00.186Z,8.80
2019-02-24T08:13:32.830Z,10.07
2019-02-24T08:16:05.484Z,10.00
2019-02-24T08:18:38.127Z,9.67
2019-02-24T08:21:10.760Z,11.17
2019-02-24T08:23:43.438Z,9.87
2019-02-24T08:26:18.413Z,10.50
2019-02-24T08:28:51.072Z,8.63
2019-02-24T08:31:23.709Z,8.23
2019-02-24T08:33:56.343Z,10.47
2019-02-24T08:36:28.988Z,11.97
2019-02-24T08:39:01.656Z,10.60
2019-02-24T08:41:34.401Z,13.03
2019-02-24T08:44:07.058Z,8.57
2019-02-24T08:46:39.726Z,9.93
2019-02-24T08:49:12.380Z,9.70
2019-02-24T08:51:45.045Z,9.60
2019-02-24T08:54:18.547Z,9.03
2019-02-24T08:56:51.181Z,9.37
2019-02-24T08:59:23.824Z,11.77
2019-02-24T09:01:56.480Z,10.17
2019-02-24T09:04:29.120Z,10.80
2019-02-24T09:07:01.755Z,8.83
2019-02-24T09:09:34.519Z,10.30
2019-02-24T09:12:07.218Z,8.97
2019-02-24T09:14:39.913Z,9.57
2019-02-24T09:17:12.570Z,11.70
2019-02-24T09:19:45.206Z,13.57
2019-02-24T09:22:17.841Z,14.20
2019-02-24T09:24:50.499Z,7.67
2019-02-24T09:27:23.131Z,9.67
2019-02-24T09:29:55.755Z,8.43
2019-02-24T09:32:28.395Z,8.27
2019-02-24T09:35:01.026Z,8.13
2019-02-24T09:37:33.778Z,10.50
2019-02-24T09:40:07.432Z,10.83
2019-02-24T09:42:40.058Z,7.67
2019-02-24T09:45:12.705Z,8.33
2019-02-24T09:47:47.125Z,8.47
2019-02-24T09:50:19.967Z,9.20
2019-02-24T09:52:52.661Z,7.77
2019-02-24T09:55:25.392Z,8.70
2019-02-24T09:57:58.019Z,9.23
2019-02-24T10:00:30.667Z,6.97
2019-02-24T10:03:03.112Z,8.37
2019-02-24T10:05:35.762Z,8.60
2019-02-24T10:08:08.402Z,7.43
2019-02-24T10:10:41.058Z,6.67
2019-02-24T10:13:13.715Z,7.60
2019-02-24T10:15:46.386Z,8.53
2019-02-24T10:18:19.011Z,8.00
2019-02-24T10:20:51.676Z,8.03
2019-02-24T10:23:24.286Z,10.40
2019-02-24T10:25:57.075Z,8.47
2019-02-24T10:28:29.718Z,7.07
2019-02-24T10:31:02.361Z,11.70
2019-02-24T10:33:34.983Z,8.40
2019-02-24T10:36:07.606Z,8.47
2019-02-24T10:38:40.274Z,7.70
2019-02-24T10:41:12.932Z,6.97
2019-02-24T10:43:45.585Z,7.73
2019-02-24T10:46:18.238Z,6.53
2019-02-24T10:48:50.603Z,7.53
2019-02-24T10:51:25.355Z,7.77
2019-02-24T10:53:57.611Z,5.97
2019-02-24T10:56:30.253Z,7.37
2019-02-24T10:59:03.051Z,7.10
2019-02-24T11:01:35.698Z,6.87
2019-02-24T11:04:08.410Z,5.70
2019-02-24T11:06:41.077Z,6.93
2019-02-24T11:09:13.704Z,6.33
2019-02-24T11:11:46.382Z,5.17
2019-02-24T11:14:19.018Z,5.80
2019-02-24T11:16:51.394Z,6.23
2019-02-24T11:19:24.062Z,5.93
2019-02-24T11:21:56.755Z,7.33
2019-02-24T11:24:29.395Z,7.53
2019-02-24T11:27:02.055Z,6.27
2019-02-24T11:29:34.721Z,6.90
2019-02-24T11:32:07.371Z,6.60
2019-02-24T11:34:40.045Z,10.50
2019-02-24T11:37:12.829Z,6.70
2019-02-24T11:39:45.506Z,4.70
2019-02-24T11:42:18.167Z,7.67
2019-02-24T11:44:50.834Z,4.73
2019-02-24T11:47:23.496Z,4.47
2019-02-24T11:49:56.132Z,7.13
2019-02-24T11:52:28.788Z,5.00
2019-02-24T11:55:01.415Z,8.83
2019-02-24T11:57:34.067Z,5.77
2019-02-24T12:00:06.838Z,6.67
2019-02-24T12:02:41.537Z,6.53
2019-02-24T12:05:13.822Z,4.60
2019-02-24T12:07:46.476Z,6.40
2019-02-24T12:10:19.139Z,4.90
2019-02-24T12:12:51.795Z,6.80
2019-02-24T12:15:24.442Z,6.97
2019-02-24T12:17:57.120Z,6.23
2019-02-24T12:20:29.871Z,5.20
2019-02-24T12:23:02.589Z,5.87
2019-02-24T12:25:35.231Z,4.40
2019-02-24T12:28:07.875Z,8.53
2019-02-24T12:30:40.519Z,5.00
2019-02-24T12:33:13.170Z,4.37
2019-02-24T12:35:45.800Z,5.20
2019-02-24T12:38:18.459Z,6.13
2019-02-24T12:40:51.088Z,4.70
2019-02-24T12:43:23.731Z,5.70
2019-02-24T12:45:56.362Z,5.87
2019-02-24T12:48:29.010Z,5.63
2019-02-24T12:51:01.651Z,4.13
2019-02-24T12:53:34.294Z,4.70
2019-02-24T12:56:06.923Z,4.37
2019-02-24T12:58:39.606Z,5.67
2019-02-24T13:01:12.242Z,4.77
2019-02-24T13:03:44.938Z,4.63
2019-02-24T13:06:17.574Z,5.60
2019-02-24T13:08:50.227Z,4.50
2019-02-24T13:11:22.851Z,4.50
2019-02-24T13:13:55.491Z,5.10
2019-02-24T13:16:28.248Z,4.57
2019-02-24T13:19:00.887Z,5.40
2019-02-24T13:21:33.552Z,4.30
2019-02-24T13:24:06.490Z,3.77
2019-02-24T13:26:39.175Z,4.10
2019-02-24T13:29:11.827Z,5.57
2019-02-24T13:31:44.471Z,3.20
2019-02-24T13:34:17.335Z,3.70
2019-02-24T13:36:49.964Z,4.20
2019-02-24T13:39:22.603Z,4.37
2019-02-24T13:41:55.254Z,4.77
2019-02-24T13:44:27.966Z,4.80
2019-02-24T13:47:00.642Z,4.37
2019-02-24T13:49:33.308Z,4.40
2019-02-24T13:52:05.960Z,5.20
2019-02-24T13:54:38.709Z,4.13
2019-02-24T13:57:11.327Z,3.67
2019-02-24T13:59:43.972Z,5.73
2019-02-24T14:02:23.834Z,5.40
2019-02-24T14:04:50.975Z,5.13
2019-02-24T14:07:23.620Z,4.97
2019-02-24T14:09:56.405Z,4.03
2019-02-24T14:12:29.035Z,3.50
2019-02-24T14:15:02.018Z,4.30
2019-02-24T14:17:34.662Z,4.50
2019-02-24T14:20:08.444Z,4.97
2019-02-24T14:22:41.062Z,4.10
2019-02-24T14:25:13.721Z,6.57
2019-02-24T14:27:46.352Z,4.03
2019-02-24T14:30:19.009Z,5.90
2019-02-24T14:32:51.639Z,4.37
2019-02-24T14:35:24.380Z,4.50
2019-02-24T14:37:57.002Z,4.60
2019-02-24T14:40:29.738Z,4.70
2019-02-24T14:43:02.375Z,4.10
2019-02-24T14:45:35.051Z,4.40
2019-02-24T14:48:07.669Z,3.47
2019-02-24T14:50:40.461Z,4.20
2019-02-24T14:53:13.115Z,7.90
2019-02-24T14:55:45.754Z,3.27
2019-02-24T14:58:18.396Z,5.97
2019-02-24T15:00:51.033Z,3.97
2019-02-24T15:03:23.659Z,6.90
2019-02-24T15:05:56.341Z,3.80
2019-02-24T15:08:28.996Z,5.20
2019-02-24T15:11:01.617Z,6.70
2019-02-24T15:13:34.239Z,4.30
2019-02-24T15:16:06.643Z,10.73
2019-02-24T15:18:39.311Z,5.23
2019-02-24T15:21:11.967Z,3.33
2019-02-24T15:23:44.587Z,3.90
2019-02-24T15:26:17.230Z,3.20
2019-02-24T15:28:49.858Z,2.73
2019-02-24T15:31:22.523Z,4.30
2019-02-24T15:33:55.155Z,2.70
2019-02-24T15:36:27.792Z,3.47
2019-02-24T15:39:00.447Z,3.17
2019-02-24T15:41:33.187Z,3.17
2019-02-24T15:44:05.832Z,2.67
2019-02-24T15:46:38.481Z,3.47
2019-02-24T15:49:11.111Z,3.23
2019-02-24T15:51:43.742Z,3.87
2019-02-24T15:54:16.380Z,3.20
2019-02-24T15:56:49.030Z,2.43
2019-02-24T15:59:21.709Z,5.50
2019-02-24T16:01:54.394Z,3.57
2019-02-24T16:04:27.035Z,3.30
2019-02-24T16:06:59.698Z,3.90
2019-02-24T16:09:32.333Z,6.77
2019-02-24T16:12:04.975Z,4.67
2019-02-24T16:14:37.636Z,5.00
2019-02-24T16:17:10.304Z,4.40
2019-02-24T16:19:42.943Z,3.23
2019-02-24T16:22:15.658Z,3.20
2019-02-24T16:24:48.306Z,4.27
2019-02-24T16:27:20.966Z,3.63
2019-02-24T16:29:53.618Z,5.00
2019-02-24T16:32:26.266Z,3.90
2019-02-24T16:34:58.905Z,4.60
2019-02-24T16:37:31.554Z,4.43
2019-02-24T16:40:05.891Z,4.77
2019-02-24T16:42:38.551Z,4.43
2019-02-24T16:45:11.528Z,4.40
2019-02-24T16:47:44.207Z,5.07
2019-02-24T16:50:16.970Z,4.13
2019-02-24T16:52:49.644Z,5.53
2019-02-24T16:55:22.307Z,5.97
2019-02-24T16:57:54.940Z,4.47
2019-02-24T17:00:27.627Z,5.23
2019-02-24T17:03:00.359Z,5.90
2019-02-24T17:05:33.010Z,6.17
2019-02-24T17:08:05.654Z,5.63
2019-02-24T17:10:38.331Z,6.30
2019-02-24T17:13:10.975Z,5.83
2019-02-24T17:15:43.610Z,5.37
2019-02-24T17:18:16.272Z,4.70
2019-02-24T17:20:48.898Z,5.87
2019-02-24T17:23:21.539Z,5.63
2019-02-24T17:25:54.159Z,6.40
2019-02-24T17:28:26.808Z,6.10
2019-02-24T17:30:59.458Z,6.60
2019-02-24T17:33:32.787Z,10.40
2019-02-24T17:36:05.474Z,5.60
2019-02-24T17:38:38.963Z,6.57
2019-02-24T17:41:12.608Z,6.27
2019-02-24T17:43:46.178Z,5.20
2019-02-24T17:46:19.807Z,7.00
2019-02-24T17:48:53.482Z,5.60
2019-02-24T17:51:27.093Z,6.30
2019-02-24T17:54:00.600Z,5.23
2019-02-24T17:56:34.085Z,5.10
2019-02-24T17:59:07.587Z,6.83
2019-02-24T18:01:41.599Z,10.83
2019-02-24T18:04:15.302Z,10.13
2019-02-24T18:06:48.010Z,11.37
2019-02-24T18:09:20.674Z,13.07
2019-02-24T18:11:53.318Z,10.00
2019-02-24T18:14:25.955Z,8.87
2019-02-24T18:16:58.583Z,11.63
2019-02-24T18:19:31.214Z,10.47
2019-02-24T18:22:03.922Z,12.30
2019-02-24T18:24:36.607Z,12.57
2019-02-24T18:27:09.263Z,21.33
2019-02-24T18:29:41.895Z,26.27
2019-02-24T18:32:14.542Z,19.20
2019-02-24T18:34:47.181Z,18.87
2019-02-24T18:37:19.826Z,16.00
2019-02-24T18:39:52.460Z,17.13
2019-02-24T18:42:25.113Z,16.20
2019-02-24T18:44:57.777Z,16.63
2019-02-24T18:47:30.408Z,19.30
2019-02-24T18:50:03.856Z,19.13
2019-02-24T18:52:36.503Z,13.70
2019-02-24T18:55:09.250Z,11.80
2019-02-24T18:57:41.894Z,14.50
2019-02-24T19:00:14.691Z,13.10
2019-02-24T19:02:47.410Z,13.37
2019-02-24T19:05:20.108Z,10.53
2019-02-24T19:07:52.740Z,16.83
2019-02-24T19:10:25.458Z,13.23
2019-02-24T19:12:58.107Z,13.87
2019-02-24T19:15:30.773Z,15.80
2019-02-24T19:18:03.404Z,13.70
2019-02-24T19:20:36.040Z,10.77
2019-02-24T19:23:08.681Z,9.47
2019-02-24T19:25:41.302Z,7.13
2019-02-24T19:28:13.955Z,10.63
2019-02-24T19:30:46.659Z,14.03
2019-02-24T19:33:19.383Z,10.20
2019-02-24T19:35:52.075Z,10.60
2019-02-24T19:38:24.715Z,8.57
2019-02-24T19:40:57.342Z,9.27
2019-02-24T19:43:30.294Z,8.70
2019-02-24T19:46:02.910Z,8.90
2019-02-24T19:48:41.796Z,8.60
2019-02-24T19:51:09.906Z,8.47
2019-02-24T19:53:42.929Z,11.13
2019-02-24T19:56:15.656Z,8.83
2019-02-24T19:58:49.101Z,8.57
2019-02-24T20:01:21.807Z,8.33
2019-02-24T20:03:54.486Z,8.47
2019-02-24T20:06:27.122Z,8.47
2019-02-24T20:08:59.789Z,8.87
2019-02-24T20:11:32.450Z,8.30
2019-02-24T20:14:05.107Z,6.73
2019-02-24T20:16:37.775Z,6.97
2019-02-24T20:19:10.418Z,6.80
2019-02-24T20:21:43.045Z,8.20
2019-02-24T20:24:15.696Z,6.73
2019-02-24T20:26:48.374Z,7.73
2019-02-24T20:29:21.049Z,8.57
2019-02-24T20:31:53.720Z,9.03
2019-02-24T20:34:26.391Z,8.90
2019-02-24T20:36:59.003Z,7.50
2019-02-24T20:39:31.672Z,11.33
2019-02-24T20:42:04.301Z,10.17
2019-02-24T20:44:36.966Z,14.70
2019-02-24T20:47:09.582Z,11.27
2019-02-24T20:49:42.234Z,10.43
2019-02-24T20:52:14.883Z,14.60
2019-02-24T20:54:47.532Z,12.00
2019-02-24T20:57:20.159Z,11.80
2019-02-24T20:59:53.268Z,10.43
2019-02-24T21:02:26.010Z,13.57
2019-02-24T21:04:58.665Z,12.80
2019-02-24T21:07:31.291Z,10.20
2019-02-24T21:10:04.262Z,13.43
2019-02-24T21:12:36.956Z,9.17
2019-02-24T21:15:10.246Z,11.40
2019-02-24T21:17:42.899Z,11.20
2019-02-24T21:20:17.570Z,16.83
2019-02-24T21:22:50.730Z,10.77
2019-02-24T21:25:23.526Z,11.23
2019-02-24T21:27:56.223Z,11.10
2019-02-24T21:30:28.876Z,12.17
2019-02-24T21:33:01.772Z,15.27
2019-02-24T21:35:34.434Z,14.07
2019-02-24T21:38:07.097Z,13.50
2019-02-24T21:40:39.763Z,12.57
2019-02-24T21:43:12.409Z,9.70
2019-02-24T21:45:45.065Z,8.73
2019-02-24T21:48:17.701Z,13.27
2019-02-24T21:50:50.394Z,9.73
2019-02-24T21:53:23.067Z,11.50
2019-02-24T21:55:55.764Z,11.80
2019-02-24T21:58:28.448Z,11.30
2019-02-24T22:01:01.141Z,7.37
2019-02-24T22:03:33.767Z,7.50
2019-02-24T22:06:06.418Z,9.47
2019-02-24T22:08:39.080Z,8.30
2019-02-24T22:11:11.726Z,9.63
2019-02-24T22:14:03.680Z,7.73
2019-02-24T22:16:36.306Z,8.27
2019-02-24T22:19:08.939Z,7.77
2019-02-24T22:21:41.593Z,6.37
2019-02-24T22:24:14.300Z,7.00
2019-02-24T22:26:46.916Z,9.50
2019-02-24T22:29:19.549Z,6.63
2019-02-24T22:31:52.188Z,7.63
2019-02-24T22:34:24.831Z,6.83
2019-02-24T22:36:57.459Z,6.40
2019-02-24T22:39:30.111Z,6.67
2019-02-24T22:42:02.758Z,6.97
2019-02-24T22:44:35.509Z,7.23
2019-02-24T22:47:08.218Z,7.57
2019-02-24T22:49:40.858Z,9.57
2019-02-24T22:52:13.506Z,5.93
2019-02-24T22:54:46.146Z,5.53
2019-02-24T22:57:18.779Z,6.30
2019-02-24T22:59:51.428Z,7.67
2019-02-24T23:02:24.062Z,10.20
2019-02-24T23:04:56.698Z,6.70
2019-02-24T23:07:29.328Z,6.10
2019-02-24T23:10:01.978Z,7.43
2019-02-24T23:12:34.616Z,6.23
2019-02-24T23:15:07.262Z,6.97
2019-02-24T23:17:39.892Z,6.10
2019-02-24T23:20:12.552Z,6.70
2019-02-24T23:22:45.193Z,7.23
2019-02-24T23:25:17.830Z,7.40
2019-02-24T23:27:50.465Z,8.87
2019-02-24T23:30:23.131Z,7.20
2019-02-24T23:32:55.766Z,8.17
2019-02-24T23:35:28.501Z,6.70
2019-02-24T23:38:01.131Z,7.80
2019-02-24T23:40:33.780Z,8.27
2019-02-24T23:43:06.443Z,10.60
2019-02-24T23:45:39.109Z,9.03
2019-02-24T23:48:11.739Z,10.23
2019-02-24T23:50:44.370Z,11.20
2019-02-24T23:53:16.992Z,8.13
2019-02-24T23:55:49.648Z,10.27
2019-02-24T23:58:22.399Z,8.67
